createdAt,value
2017-12-21T00:00:46.676Z,0
2017-12-21T00:01:49.178Z,0
2017-12-21T00:02:51.951Z,0
2017-12-21T00:03:54.453Z,0
2017-12-21T00:04:56.952Z,0
2017-12-21T00:05:59.739Z,0
2017-12-21T00:07:02.231Z,0
2017-12-21T00:08:04.733Z,0
2017-12-21T00:09:07.238Z,0
2017-12-21T00:10:09.724Z,0
2017-12-21T00:11:12.216Z,0
2017-12-21T00:12:14.722Z,0
2017-12-21T00:13:17.216Z,0
2017-12-21T00:14:19.705Z,0
2017-12-21T00:15:22.199Z,0
2017-12-21T00:16:24.689Z,0
2017-12-21T00:17:27.472Z,0
2017-12-21T00:18:29.974Z,0
2017-12-21T00:19:32.453Z,0
2017-12-21T00:20:34.960Z,0
2017-12-21T00:21:37.459Z,0
2017-12-21T00:22:39.949Z,0
2017-12-21T00:23:42.447Z,0
2017-12-21T00:24:44.929Z,0
2017-12-21T00:25:47.420Z,0
2017-12-21T00:26:49.934Z,0
2017-12-21T00:27:52.424Z,0
2017-12-21T00:28:54.913Z,0
2017-12-21T00:29:57.409Z,0
2017-12-21T00:30:59.901Z,0
2017-12-21T00:32:02.399Z,0
2017-12-21T00:33:04.896Z,0
2017-12-21T00:34:07.666Z,0
2017-12-21T00:35:10.162Z,0
2017-12-21T00:36:12.671Z,0
2017-12-21T00:37:15.167Z,0
2017-12-21T00:38:17.648Z,0
2017-12-21T00:39:20.157Z,0
2017-12-21T00:40:22.644Z,0
2017-12-21T00:41:25.133Z,0
2017-12-21T00:42:27.635Z,0
2017-12-21T00:43:30.411Z,0
2017-12-21T00:44:32.958Z,0
2017-12-21T00:45:35.411Z,0
2017-12-21T00:46:37.903Z,0
2017-12-21T00:47:40.397Z,0
2017-12-21T00:48:42.888Z,0
2017-12-21T00:49:45.376Z,0
2017-12-21T00:50:47.890Z,0
2017-12-21T00:51:50.388Z,0
2017-12-21T00:52:52.867Z,0
2017-12-21T00:53:55.651Z,0
2017-12-21T00:54:58.141Z,0
2017-12-21T00:56:00.922Z,0
2017-12-21T00:57:04.001Z,0
2017-12-21T00:58:06.485Z,0
2017-12-21T00:59:08.978Z,0
2017-12-21T01:00:11.482Z,0
2017-12-21T01:01:14.269Z,0
2017-12-21T01:02:16.764Z,0
2017-12-21T01:03:19.254Z,0
2017-12-21T01:04:22.054Z,0
2017-12-21T01:05:24.850Z,0
2017-12-21T01:06:27.344Z,0
2017-12-21T01:07:29.842Z,0
2017-12-21T01:08:32.334Z,0
2017-12-21T01:09:34.828Z,0
2017-12-21T01:10:37.322Z,0
2017-12-21T01:11:39.832Z,0
2017-12-21T01:12:42.322Z,0
2017-12-21T01:13:44.815Z,0
2017-12-21T01:14:47.313Z,0
2017-12-21T01:15:49.800Z,0
2017-12-21T01:16:52.298Z,0
2017-12-21T01:17:55.086Z,0
2017-12-21T01:18:57.562Z,0
2017-12-21T01:20:00.063Z,0
2017-12-21T01:21:02.564Z,0
2017-12-21T01:22:05.058Z,0
2017-12-21T01:23:07.555Z,0
2017-12-21T01:24:10.037Z,0
2017-12-21T01:25:12.521Z,0
2017-12-21T01:26:15.029Z,0
2017-12-21T01:27:17.518Z,0
2017-12-21T01:28:20.012Z,0
2017-12-21T01:29:22.506Z,0
2017-12-21T01:30:25.001Z,0
2017-12-21T01:31:27.500Z,0
2017-12-21T01:32:29.999Z,0
2017-12-21T01:33:32.487Z,0
2017-12-21T01:34:34.990Z,0
2017-12-21T01:35:37.479Z,0
2017-12-21T01:36:39.977Z,0
2017-12-21T01:37:42.465Z,0
2017-12-21T01:38:45.248Z,0
2017-12-21T01:39:48.038Z,0
2017-12-21T01:40:50.534Z,0
2017-12-21T01:41:53.026Z,0
2017-12-21T01:42:55.520Z,0
2017-12-21T01:43:58.020Z,0
2017-12-21T01:45:00.503Z,0
2017-12-21T01:46:03.308Z,0
2017-12-21T01:47:05.803Z,0
2017-12-21T01:48:08.295Z,0
2017-12-21T01:49:10.789Z,0
2017-12-21T01:50:13.288Z,0
2017-12-21T01:51:15.780Z,0
2017-12-21T01:52:18.280Z,0
2017-12-21T01:53:21.064Z,0
2017-12-21T01:54:23.553Z,0
2017-12-21T01:55:26.052Z,0
2017-12-21T01:56:28.546Z,0
2017-12-21T01:57:31.045Z,0
2017-12-21T01:58:33.538Z,0
2017-12-21T01:59:36.018Z,0
2017-12-21T02:00:38.517Z,0
2017-12-21T02:01:41.011Z,0
2017-12-21T02:02:43.504Z,0
2017-12-21T02:03:46.580Z,0
2017-12-21T02:04:49.060Z,0
2017-12-21T02:05:51.561Z,0
2017-12-21T02:06:54.047Z,0
2017-12-21T02:07:56.530Z,0
2017-12-21T02:08:59.044Z,0
2017-12-21T02:10:01.532Z,0
2017-12-21T02:11:04.022Z,0
2017-12-21T02:12:06.523Z,0
2017-12-21T02:13:09.018Z,0
2017-12-21T02:14:11.508Z,0
2017-12-21T02:15:14.014Z,0
2017-12-21T02:16:16.497Z,0
2017-12-21T02:17:18.995Z,0
2017-12-21T02:18:21.503Z,0
2017-12-21T02:19:23.991Z,0
2017-12-21T02:20:26.488Z,0
2017-12-21T02:21:29.289Z,0
2017-12-21T02:22:31.780Z,0
2017-12-21T02:23:34.285Z,0
2017-12-21T02:24:36.779Z,0
2017-12-21T02:25:39.268Z,0
2017-12-21T02:26:42.051Z,0
2017-12-21T02:27:44.551Z,0
2017-12-21T02:28:47.038Z,0
2017-12-21T02:29:49.543Z,0
2017-12-21T02:30:52.016Z,0
2017-12-21T02:31:54.513Z,0
2017-12-21T02:32:57.024Z,0
2017-12-21T02:33:59.529Z,0
2017-12-21T02:35:02.007Z,0
2017-12-21T02:36:04.794Z,0
2017-12-21T02:37:07.291Z,0
2017-12-21T02:38:09.787Z,0
2017-12-21T02:39:12.276Z,0
2017-12-21T02:40:15.068Z,0
2017-12-21T02:41:17.551Z,0
2017-12-21T02:42:20.055Z,0
2017-12-21T02:43:22.550Z,0
2017-12-21T02:44:25.036Z,0
2017-12-21T02:45:27.537Z,0
2017-12-21T02:46:30.034Z,0
2017-12-21T02:47:32.526Z,0
2017-12-21T02:48:35.376Z,0
2017-12-21T02:49:37.860Z,0
2017-12-21T02:50:40.369Z,0
2017-12-21T02:51:42.875Z,0
2017-12-21T02:52:45.715Z,0
2017-12-21T02:53:48.441Z,0
2017-12-21T02:54:50.941Z,0
2017-12-21T02:55:53.428Z,0
2017-12-21T02:56:55.940Z,0
2017-12-21T02:57:58.440Z,0
2017-12-21T02:59:01.212Z,0
2017-12-21T03:00:03.998Z,0
2017-12-21T03:01:06.486Z,0
2017-12-21T03:02:08.980Z,0
2017-12-21T03:03:11.468Z,0
2017-12-21T03:04:14.115Z,0
2017-12-21T03:05:16.616Z,0
2017-12-21T03:06:19.090Z,0
2017-12-21T03:07:21.578Z,0
2017-12-21T03:08:24.079Z,0
2017-12-21T03:09:26.568Z,0
2017-12-21T03:10:29.065Z,0
2017-12-21T03:11:32.154Z,0
2017-12-21T03:12:34.650Z,0
2017-12-21T03:13:37.157Z,0
2017-12-21T03:14:39.704Z,0
2017-12-21T03:15:42.147Z,0
2017-12-21T03:16:44.643Z,0
2017-12-21T03:17:47.143Z,0
2017-12-21T03:18:49.637Z,0
2017-12-21T03:19:52.136Z,0
2017-12-21T03:20:54.616Z,0
2017-12-21T03:21:57.411Z,0
2017-12-21T03:22:59.915Z,0
2017-12-21T03:24:02.695Z,0
2017-12-21T03:25:05.187Z,0
2017-12-21T03:26:07.977Z,0
2017-12-21T03:27:10.469Z,0
2017-12-21T03:28:12.979Z,0
2017-12-21T03:29:15.766Z,0
2017-12-21T03:30:18.242Z,0
2017-12-21T03:31:21.043Z,0
2017-12-21T03:32:23.842Z,0
2017-12-21T03:33:26.337Z,0
2017-12-21T03:34:29.121Z,0
2017-12-21T03:35:31.618Z,0
2017-12-21T03:36:34.106Z,0
2017-12-21T03:37:36.596Z,0
2017-12-21T03:38:39.088Z,0
2017-12-21T03:39:41.597Z,0
2017-12-21T03:40:44.084Z,0
2017-12-21T03:41:46.573Z,0
2017-12-21T03:42:49.078Z,0
2017-12-21T03:43:51.578Z,0
2017-12-21T03:44:54.065Z,0
2017-12-21T03:45:56.564Z,0
2017-12-21T03:46:59.047Z,0
2017-12-21T03:48:01.550Z,0
2017-12-21T03:49:04.041Z,0
2017-12-21T03:50:06.543Z,0
2017-12-21T03:51:09.033Z,0
2017-12-21T03:52:11.527Z,0
2017-12-21T03:53:14.021Z,0
2017-12-21T03:54:16.533Z,0
2017-12-21T03:55:19.018Z,0
2017-12-21T03:56:21.509Z,0
2017-12-21T03:57:24.009Z,0
2017-12-21T03:58:26.503Z,0
2017-12-21T03:59:29.577Z,0
2017-12-21T04:00:32.074Z,0
2017-12-21T04:01:34.559Z,0
2017-12-21T04:02:37.062Z,0
2017-12-21T04:03:39.567Z,0
2017-12-21T04:04:42.342Z,0
2017-12-21T04:05:45.123Z,0
2017-12-21T04:06:47.609Z,0
2017-12-21T04:07:50.110Z,0
2017-12-21T04:08:52.599Z,0
2017-12-21T04:09:55.404Z,0
2017-12-21T04:10:57.897Z,0
2017-12-21T04:12:00.391Z,0
2017-12-21T04:13:02.888Z,0
2017-12-21T04:14:05.391Z,0
2017-12-21T04:15:07.872Z,0
2017-12-21T04:16:10.375Z,0
2017-12-21T04:17:12.875Z,0
2017-12-21T04:18:15.381Z,0
2017-12-21T04:19:18.165Z,0
2017-12-21T04:20:20.653Z,0
2017-12-21T04:21:23.148Z,0
2017-12-21T04:22:25.649Z,0
2017-12-21T04:23:28.141Z,0
2017-12-21T04:24:30.938Z,0
2017-12-21T04:25:33.415Z,0
2017-12-21T04:26:35.909Z,0
2017-12-21T04:27:38.402Z,0
2017-12-21T04:28:40.905Z,0
2017-12-21T04:29:43.382Z,0
2017-12-21T04:30:45.884Z,0
2017-12-21T04:31:48.673Z,0
2017-12-21T04:32:51.457Z,0
2017-12-21T04:33:53.947Z,0
2017-12-21T04:34:56.446Z,0
2017-12-21T04:35:59.232Z,0
2017-12-21T04:37:01.732Z,0
2017-12-21T04:38:04.220Z,0
2017-12-21T04:39:06.721Z,0
2017-12-21T04:40:09.207Z,0
2017-12-21T04:41:11.710Z,0
2017-12-21T04:42:14.510Z,0
2017-12-21T04:43:17.004Z,0
2017-12-21T04:44:19.500Z,0
2017-12-21T04:45:22.294Z,0
2017-12-21T04:46:24.779Z,0
2017-12-21T04:47:27.285Z,0
2017-12-21T04:48:29.786Z,0
2017-12-21T04:49:32.282Z,0
2017-12-21T04:50:34.774Z,0
2017-12-21T04:51:37.571Z,0
2017-12-21T04:52:40.055Z,0
2017-12-21T04:53:42.572Z,0
2017-12-21T04:54:45.048Z,0
2017-12-21T04:55:47.547Z,0
2017-12-21T04:56:50.045Z,0
2017-12-21T04:57:52.531Z,0
2017-12-21T04:58:55.029Z,0
2017-12-21T04:59:57.532Z,0
2017-12-21T05:01:00.012Z,0
2017-12-21T05:02:02.819Z,0
2017-12-21T05:03:05.327Z,0
2017-12-21T05:04:07.816Z,0
2017-12-21T05:05:10.298Z,0
2017-12-21T05:06:12.799Z,0
2017-12-21T05:07:15.299Z,0
2017-12-21T05:08:17.790Z,0
2017-12-21T05:09:20.582Z,0
2017-12-21T05:10:23.062Z,0
2017-12-21T05:11:25.553Z,0
2017-12-21T05:12:28.073Z,0
2017-12-21T05:13:30.560Z,0
2017-12-21T05:14:33.051Z,0
2017-12-21T05:15:35.547Z,0
2017-12-21T05:16:38.035Z,0
2017-12-21T05:17:40.862Z,0
2017-12-21T05:18:43.358Z,0
2017-12-21T05:19:45.837Z,0
2017-12-21T05:20:48.338Z,0
2017-12-21T05:21:50.836Z,0
2017-12-21T05:22:53.334Z,0
2017-12-21T05:23:56.140Z,0
2017-12-21T05:24:58.918Z,0
2017-12-21T05:26:01.413Z,0
2017-12-21T05:27:03.920Z,0
2017-12-21T05:28:06.410Z,0
2017-12-21T05:29:08.896Z,0
2017-12-21T05:30:11.387Z,0
2017-12-21T05:31:14.176Z,0
2017-12-21T05:32:16.670Z,0
2017-12-21T05:33:19.170Z,0
2017-12-21T05:34:21.664Z,0
2017-12-21T05:35:24.153Z,0
2017-12-21T05:36:26.669Z,0
2017-12-21T05:37:29.168Z,0
2017-12-21T05:38:31.654Z,0
2017-12-21T05:39:34.445Z,0
2017-12-21T05:40:36.928Z,0
2017-12-21T05:41:39.430Z,0
2017-12-21T05:42:42.216Z,0
2017-12-21T05:43:44.703Z,0
2017-12-21T05:44:47.198Z,0
2017-12-21T05:45:49.703Z,0
2017-12-21T05:46:52.194Z,0
2017-12-21T05:47:54.696Z,0
2017-12-21T05:48:57.189Z,0
2017-12-21T05:49:59.679Z,0
2017-12-21T05:51:02.189Z,0
2017-12-21T05:52:04.685Z,0
2017-12-21T05:53:07.170Z,0
2017-12-21T05:54:09.669Z,0
2017-12-21T05:55:12.458Z,0
2017-12-21T05:56:14.960Z,0
2017-12-21T05:57:17.461Z,0
2017-12-21T05:58:19.945Z,0
2017-12-21T05:59:22.432Z,0
2017-12-21T06:00:24.951Z,0
2017-12-21T06:01:27.440Z,0
2017-12-21T06:02:29.929Z,0
2017-12-21T06:03:32.419Z,0
2017-12-21T06:04:34.923Z,0
2017-12-21T06:05:37.418Z,0
2017-12-21T06:06:39.919Z,0
2017-12-21T06:07:42.420Z,0
2017-12-21T06:08:44.916Z,0
2017-12-21T06:09:47.701Z,0
2017-12-21T06:10:50.498Z,0
2017-12-21T06:11:52.984Z,0
2017-12-21T06:12:55.485Z,0
2017-12-21T06:13:57.981Z,0
2017-12-21T06:15:00.473Z,0
2017-12-21T06:16:02.967Z,0
2017-12-21T06:17:05.470Z,0
2017-12-21T06:18:07.959Z,0
2017-12-21T06:19:10.454Z,0
2017-12-21T06:20:12.952Z,0
2017-12-21T06:21:15.443Z,0
2017-12-21T06:22:17.944Z,0
2017-12-21T06:23:20.438Z,0
2017-12-21T06:24:22.965Z,0
2017-12-21T06:25:25.443Z,0
2017-12-21T06:26:27.934Z,0
2017-12-21T06:27:30.728Z,0
2017-12-21T06:28:33.222Z,0
2017-12-21T06:29:35.718Z,0
2017-12-21T06:30:38.218Z,0
2017-12-21T06:31:40.706Z,0
2017-12-21T06:32:43.204Z,0
2017-12-21T06:33:45.694Z,0
2017-12-21T06:34:48.195Z,0
2017-12-21T06:35:50.712Z,0
2017-12-21T06:36:53.195Z,0
2017-12-21T06:37:55.697Z,0
2017-12-21T06:38:58.188Z,0
2017-12-21T06:40:00.692Z,0
2017-12-21T06:41:03.187Z,0
2017-12-21T06:42:05.680Z,0
2017-12-21T06:43:08.450Z,0
2017-12-21T06:44:10.953Z,0
2017-12-21T06:45:13.455Z,0
2017-12-21T06:46:16.239Z,0
2017-12-21T06:47:18.740Z,0
2017-12-21T06:48:21.523Z,0
2017-12-21T06:49:24.021Z,0
2017-12-21T06:50:26.530Z,0
2017-12-21T06:51:29.018Z,0
2017-12-21T06:52:31.522Z,4
2017-12-21T06:53:34.067Z,4
2017-12-21T06:54:36.518Z,4
2017-12-21T06:55:39.311Z,4
2017-12-21T06:56:41.811Z,4
2017-12-21T06:57:44.291Z,4
2017-12-21T06:58:46.795Z,0
2017-12-21T06:59:49.298Z,4
2017-12-21T07:00:51.804Z,4
2017-12-21T07:01:54.287Z,8
2017-12-21T07:02:57.081Z,4
2017-12-21T07:03:59.578Z,8
2017-12-21T07:05:02.080Z,8
2017-12-21T07:06:04.572Z,8
2017-12-21T07:07:07.106Z,8
2017-12-21T07:08:09.588Z,12
2017-12-21T07:09:12.089Z,16
2017-12-21T07:10:14.588Z,16
2017-12-21T07:11:17.077Z,16
2017-12-21T07:12:19.582Z,20
2017-12-21T07:13:22.082Z,32
2017-12-21T07:14:24.577Z,36
2017-12-21T07:15:27.084Z,36
2017-12-21T07:16:29.570Z,40
2017-12-21T07:17:32.074Z,44
2017-12-21T07:18:34.862Z,56
2017-12-21T07:19:37.358Z,52
2017-12-21T07:20:39.855Z,56
2017-12-21T07:21:42.359Z,56
2017-12-21T07:22:44.830Z,60
2017-12-21T07:23:47.347Z,72
2017-12-21T07:24:49.839Z,76
2017-12-21T07:25:52.328Z,72
2017-12-21T07:26:54.832Z,80
2017-12-21T07:27:57.327Z,76
2017-12-21T07:28:59.832Z,88
2017-12-21T07:30:02.327Z,112
2017-12-21T07:31:04.843Z,120
2017-12-21T07:32:07.341Z,124
2017-12-21T07:33:10.121Z,136
2017-12-21T07:34:12.612Z,144
2017-12-21T07:35:15.104Z,144
2017-12-21T07:36:17.603Z,148
2017-12-21T07:37:20.094Z,176
2017-12-21T07:38:22.581Z,200
2017-12-21T07:39:25.089Z,220
2017-12-21T07:40:27.595Z,212
2017-12-21T07:41:30.158Z,208
2017-12-21T07:42:32.658Z,220
2017-12-21T07:43:35.152Z,228
2017-12-21T07:44:37.945Z,220
2017-12-21T07:45:40.447Z,216
2017-12-21T07:46:42.954Z,256
2017-12-21T07:47:45.451Z,336
2017-12-21T07:48:47.945Z,388
2017-12-21T07:49:50.459Z,416
2017-12-21T07:50:52.957Z,456
2017-12-21T07:51:55.453Z,484
2017-12-21T07:52:57.958Z,516
2017-12-21T07:54:00.460Z,556
2017-12-21T07:55:02.954Z,596
2017-12-21T07:56:05.455Z,608
2017-12-21T07:57:08.232Z,616
2017-12-21T07:58:10.737Z,636
2017-12-21T07:59:13.242Z,672
2017-12-21T08:00:16.024Z,748
2017-12-21T08:01:18.530Z,812
2017-12-21T08:02:21.031Z,824
2017-12-21T08:03:23.815Z,840
2017-12-21T08:04:26.314Z,856
2017-12-21T08:05:28.806Z,892
2017-12-21T08:06:31.326Z,904
2017-12-21T08:07:33.828Z,960
2017-12-21T08:08:36.329Z,1008
2017-12-21T08:09:38.830Z,1040
2017-12-21T08:10:41.929Z,1084
2017-12-21T08:11:44.457Z,1128
2017-12-21T08:12:46.957Z,1156
2017-12-21T08:13:49.450Z,1160
2017-12-21T08:14:52.253Z,1176
2017-12-21T08:15:54.739Z,1216
2017-12-21T08:16:57.236Z,1232
2017-12-21T08:17:59.745Z,1032
2017-12-21T08:19:02.243Z,1032
2017-12-21T08:20:04.738Z,1064
2017-12-21T08:21:07.838Z,1152
2017-12-21T08:22:10.330Z,1104
2017-12-21T08:23:13.161Z,1000
2017-12-21T08:24:15.658Z,1000
2017-12-21T08:25:18.143Z,1036
2017-12-21T08:26:20.944Z,1000
2017-12-21T08:27:23.454Z,1192
2017-12-21T08:28:26.222Z,1148
2017-12-21T08:29:28.707Z,1056
2017-12-21T08:30:31.223Z,1032
2017-12-21T08:31:33.722Z,1048
2017-12-21T08:32:36.211Z,1172
2017-12-21T08:33:38.713Z,1164
2017-12-21T08:34:41.208Z,1420
2017-12-21T08:35:43.702Z,1392
2017-12-21T08:36:46.210Z,1428
2017-12-21T08:37:48.704Z,1584
2017-12-21T08:38:51.789Z,1628
2017-12-21T08:39:54.642Z,1624
2017-12-21T08:40:57.144Z,1624
2017-12-21T08:41:59.639Z,1616
2017-12-21T08:43:02.138Z,1648
2017-12-21T08:44:04.634Z,1568
2017-12-21T08:45:07.429Z,1852
2017-12-21T08:46:09.914Z,1952
2017-12-21T08:47:12.707Z,2016
2017-12-21T08:48:15.198Z,2144
2017-12-21T08:49:17.991Z,2132
2017-12-21T08:50:20.488Z,1776
2017-12-21T08:51:22.978Z,1708
2017-12-21T08:52:25.474Z,1740
2017-12-21T08:53:27.966Z,1828
2017-12-21T08:54:30.466Z,2068
2017-12-21T08:55:33.264Z,2068
2017-12-21T08:56:35.742Z,2016
2017-12-21T08:57:38.235Z,2132
2017-12-21T08:58:40.746Z,2520
2017-12-21T08:59:43.235Z,2516
2017-12-21T09:00:45.728Z,2620
2017-12-21T09:01:48.232Z,2892
2017-12-21T09:02:50.733Z,3116
2017-12-21T09:03:53.498Z,3280
2017-12-21T09:04:56.001Z,3316
2017-12-21T09:05:58.505Z,3340
2017-12-21T09:07:00.994Z,3352
2017-12-21T09:08:03.787Z,3272
2017-12-21T09:09:06.350Z,3364
2017-12-21T09:10:08.845Z,3304
2017-12-21T09:11:11.644Z,3472
2017-12-21T09:12:14.143Z,3244
2017-12-21T09:13:16.624Z,3144
2017-12-21T09:14:19.124Z,3428
2017-12-21T09:15:21.620Z,3496
2017-12-21T09:16:24.123Z,3688
2017-12-21T09:17:26.629Z,3868
2017-12-21T09:18:29.119Z,4072
2017-12-21T09:19:31.617Z,4304
2017-12-21T09:20:34.123Z,4472
2017-12-21T09:21:36.614Z,4696
2017-12-21T09:22:39.114Z,4960
2017-12-21T09:23:41.615Z,5208
2017-12-21T09:24:44.100Z,5360
2017-12-21T09:25:46.595Z,5492
2017-12-21T09:26:49.090Z,5504
2017-12-21T09:27:51.875Z,5444
2017-12-21T09:28:54.383Z,5328
2017-12-21T09:29:56.866Z,5164
2017-12-21T09:30:59.370Z,4984
2017-12-21T09:32:01.877Z,4840
2017-12-21T09:33:04.664Z,4764
2017-12-21T09:34:07.159Z,4692
2017-12-21T09:35:09.671Z,4596
2017-12-21T09:36:12.160Z,4520
2017-12-21T09:37:14.675Z,4436
2017-12-21T09:38:17.459Z,4456
2017-12-21T09:39:19.952Z,4568
2017-12-21T09:40:22.453Z,4820
2017-12-21T09:41:24.944Z,5196
2017-12-21T09:42:27.738Z,5636
2017-12-21T09:43:30.227Z,6124
2017-12-21T09:44:33.012Z,6676
2017-12-21T09:45:35.810Z,7180
2017-12-21T09:46:38.327Z,7568
2017-12-21T09:47:40.821Z,7628
2017-12-21T09:48:43.642Z,7788
2017-12-21T09:49:46.142Z,8156
2017-12-21T09:50:48.640Z,8960
2017-12-21T09:51:51.148Z,9552
2017-12-21T09:52:53.649Z,9604
2017-12-21T09:53:56.143Z,9404
2017-12-21T09:54:58.942Z,9548
2017-12-21T09:56:01.437Z,9660
2017-12-21T09:57:03.944Z,9524
2017-12-21T09:58:06.437Z,9044
2017-12-21T09:59:08.941Z,8624
2017-12-21T10:00:11.453Z,8512
2017-12-21T10:01:13.940Z,8692
2017-12-21T10:02:16.439Z,9048
2017-12-21T10:03:18.952Z,9284
2017-12-21T10:04:21.445Z,9336
2017-12-21T10:05:24.237Z,9240
2017-12-21T10:06:26.733Z,9016
2017-12-21T10:07:29.230Z,8928
2017-12-21T10:08:31.738Z,9096
2017-12-21T10:09:34.240Z,10008
2017-12-21T10:10:37.010Z,12196
2017-12-21T10:11:39.515Z,11488
2017-12-21T10:12:42.022Z,10288
2017-12-21T10:13:44.517Z,11136
2017-12-21T10:14:47.603Z,12964
2017-12-21T10:15:50.100Z,11740
2017-12-21T10:16:52.654Z,11764
2017-12-21T10:17:55.473Z,15044
2017-12-21T10:18:57.966Z,20224
2017-12-21T10:20:00.460Z,21856
2017-12-21T10:21:02.967Z,30272
2017-12-21T10:22:05.461Z,37152
2017-12-21T10:23:08.840Z,40992
2017-12-21T10:24:11.336Z,45024
2017-12-21T10:25:13.833Z,48192
2017-12-21T10:26:16.346Z,51840
2017-12-21T10:27:18.849Z,44864
2017-12-21T10:28:21.642Z,31840
2017-12-21T10:29:24.144Z,47104
2017-12-21T10:30:26.652Z,50208
2017-12-21T10:31:29.157Z,39680
2017-12-21T10:32:31.655Z,51808
2017-12-21T10:33:34.146Z,51104
2017-12-21T10:34:36.678Z,37472
2017-12-21T10:35:39.444Z,40928
2017-12-21T10:36:41.949Z,38880
2017-12-21T10:37:44.443Z,37920
2017-12-21T10:38:46.954Z,25056
2017-12-21T10:39:49.458Z,22464
2017-12-21T10:40:51.968Z,20640
2017-12-21T10:41:54.457Z,24192
2017-12-21T10:42:56.969Z,17224
2017-12-21T10:43:59.466Z,17792
2017-12-21T10:45:01.960Z,15432
2017-12-21T10:46:04.489Z,15608
2017-12-21T10:47:06.985Z,14672
2017-12-21T10:48:09.798Z,14364
2017-12-21T10:49:12.300Z,12084
2017-12-21T10:50:14.802Z,10684
2017-12-21T10:51:17.303Z,9556
2017-12-21T10:52:19.850Z,9792
2017-12-21T10:53:22.337Z,9984
2017-12-21T10:54:24.834Z,11852
2017-12-21T10:55:27.351Z,10188
2017-12-21T10:56:29.842Z,9000
2017-12-21T10:57:32.343Z,10460
2017-12-21T10:58:34.862Z,11776
2017-12-21T10:59:37.351Z,11828
2017-12-21T11:00:39.854Z,9728
2017-12-21T11:01:42.636Z,6580
2017-12-21T11:02:45.465Z,6328
2017-12-21T11:03:47.963Z,7140
2017-12-21T11:04:50.463Z,8344
2017-12-21T11:05:52.966Z,9524
2017-12-21T11:06:55.760Z,10156
2017-12-21T11:07:58.264Z,9824
2017-12-21T11:09:00.775Z,8256
2017-12-21T11:10:03.841Z,8428
2017-12-21T11:11:06.355Z,7152
2017-12-21T11:12:08.844Z,7904
2017-12-21T11:13:11.637Z,8208
2017-12-21T11:14:14.135Z,7788
2017-12-21T11:15:16.644Z,12736
2017-12-21T11:16:19.137Z,7012
2017-12-21T11:17:21.649Z,7164
2017-12-21T11:18:24.150Z,9928
2017-12-21T11:19:26.918Z,10132
2017-12-21T11:20:29.738Z,5700
2017-12-21T11:21:32.232Z,8080
2017-12-21T11:22:34.735Z,7012
2017-12-21T11:23:37.229Z,8544
2017-12-21T11:24:39.725Z,11020
2017-12-21T11:25:42.216Z,7944
2017-12-21T11:26:44.729Z,8608
2017-12-21T11:27:47.506Z,13500
2017-12-21T11:28:50.021Z,12412
2017-12-21T11:29:52.518Z,14284
2017-12-21T11:30:55.018Z,11848
2017-12-21T11:31:57.802Z,10716
2017-12-21T11:33:00.622Z,11852
2017-12-21T11:34:03.101Z,13844
2017-12-21T11:35:05.613Z,11872
2017-12-21T11:36:08.102Z,9808
2017-12-21T11:37:10.602Z,8860
2017-12-21T11:38:13.107Z,6528
2017-12-21T11:39:15.942Z,5712
2017-12-21T11:40:18.442Z,5940
2017-12-21T11:41:20.951Z,6400
2017-12-21T11:42:23.443Z,6144
2017-12-21T11:43:25.955Z,7204
2017-12-21T11:44:28.450Z,6728
2017-12-21T11:45:31.240Z,8320
2017-12-21T11:46:33.737Z,8376
2017-12-21T11:47:36.236Z,7364
2017-12-21T11:48:38.851Z,8280
2017-12-21T11:49:41.366Z,9352
2017-12-21T11:50:43.844Z,7908
2017-12-21T11:51:46.350Z,7084
2017-12-21T11:52:49.152Z,6144
2017-12-21T11:53:51.646Z,6088
2017-12-21T11:54:54.149Z,6552
2017-12-21T11:55:56.646Z,6748
2017-12-21T11:56:59.143Z,6976
2017-12-21T11:58:01.939Z,9828
2017-12-21T11:59:05.012Z,12164
2017-12-21T12:00:07.529Z,11964
2017-12-21T12:01:10.033Z,11120
2017-12-21T12:02:12.521Z,9768
2017-12-21T12:03:15.032Z,8416
2017-12-21T12:04:17.522Z,10024
2017-12-21T12:05:20.029Z,9848
2017-12-21T12:06:22.527Z,9540
2017-12-21T12:07:25.018Z,11896
2017-12-21T12:08:27.514Z,14824
2017-12-21T12:09:30.018Z,13484
2017-12-21T12:10:32.510Z,10432
2017-12-21T12:11:35.002Z,12488
2017-12-21T12:12:37.789Z,12696
2017-12-21T12:13:40.280Z,13064
2017-12-21T12:14:42.793Z,13212
2017-12-21T12:15:45.290Z,12648
2017-12-21T12:16:47.789Z,10964
2017-12-21T12:17:50.295Z,8980
2017-12-21T12:18:52.798Z,7100
2017-12-21T12:19:55.590Z,7100
2017-12-21T12:20:58.383Z,7596
2017-12-21T12:22:00.874Z,6892
2017-12-21T12:23:03.364Z,6164
2017-12-21T12:24:05.877Z,6120
2017-12-21T12:25:08.363Z,6100
2017-12-21T12:26:11.143Z,6424
2017-12-21T12:27:13.645Z,5956
2017-12-21T12:28:16.141Z,5848
2017-12-21T12:29:18.639Z,6596
2017-12-21T12:30:21.131Z,6820
2017-12-21T12:31:23.635Z,6692
2017-12-21T12:32:26.140Z,6356
2017-12-21T12:33:28.912Z,5660
2017-12-21T12:34:31.420Z,5444
2017-12-21T12:35:34.211Z,4976
2017-12-21T12:36:36.999Z,4828
2017-12-21T12:37:39.504Z,4580
2017-12-21T12:38:41.994Z,5164
2017-12-21T12:39:44.492Z,6324
2017-12-21T12:40:47.016Z,6068
2017-12-21T12:41:49.501Z,4844
2017-12-21T12:42:51.994Z,3988
2017-12-21T12:43:54.494Z,3196
2017-12-21T12:44:56.987Z,2792
2017-12-21T12:45:59.782Z,2732
2017-12-21T12:47:02.284Z,3316
2017-12-21T12:48:04.771Z,3284
2017-12-21T12:49:07.283Z,3544
2017-12-21T12:50:09.775Z,4516
2017-12-21T12:51:12.274Z,6880
2017-12-21T12:52:14.765Z,8828
2017-12-21T12:53:17.263Z,10692
2017-12-21T12:54:19.759Z,7984
2017-12-21T12:55:22.274Z,4920
2017-12-21T12:56:25.059Z,6068
2017-12-21T12:57:27.545Z,7576
2017-12-21T12:58:30.044Z,8552
2017-12-21T12:59:32.543Z,9612
2017-12-21T13:00:35.040Z,8816
2017-12-21T13:01:37.535Z,8568
2017-12-21T13:02:40.026Z,8480
2017-12-21T13:03:42.526Z,8276
2017-12-21T13:04:45.024Z,8232
2017-12-21T13:05:47.514Z,7912
2017-12-21T13:06:50.014Z,8776
2017-12-21T13:07:52.509Z,7924
2017-12-21T13:08:55.015Z,7620
2017-12-21T13:09:57.503Z,7892
2017-12-21T13:11:00.006Z,8244
2017-12-21T13:12:02.495Z,8920
2017-12-21T13:13:05.295Z,8484
2017-12-21T13:14:07.788Z,7800
2017-12-21T13:15:10.586Z,7056
2017-12-21T13:16:13.078Z,5340
2017-12-21T13:17:15.869Z,4552
2017-12-21T13:18:18.360Z,4584
2017-12-21T13:19:20.854Z,3820
2017-12-21T13:20:23.346Z,3616
2017-12-21T13:21:25.840Z,3296
2017-12-21T13:22:28.333Z,2848
2017-12-21T13:23:30.843Z,3192
2017-12-21T13:24:33.339Z,3932
2017-12-21T13:25:35.841Z,3760
2017-12-21T13:26:38.618Z,4532
2017-12-21T13:27:41.110Z,5104
2017-12-21T13:28:43.906Z,6012
2017-12-21T13:29:46.407Z,5768
2017-12-21T13:30:48.900Z,5816
2017-12-21T13:31:51.404Z,5348
2017-12-21T13:32:53.895Z,5316
2017-12-21T13:33:56.391Z,3368
2017-12-21T13:34:58.894Z,2672
2017-12-21T13:36:01.389Z,2800
2017-12-21T13:37:03.886Z,2144
2017-12-21T13:38:06.387Z,2280
2017-12-21T13:39:09.163Z,2296
2017-12-21T13:40:11.656Z,2204
2017-12-21T13:41:14.156Z,2336
2017-12-21T13:42:16.654Z,2384
2017-12-21T13:43:19.154Z,2204
2017-12-21T13:44:21.944Z,1972
2017-12-21T13:45:24.430Z,2004
2017-12-21T13:46:26.949Z,1920
2017-12-21T13:47:30.015Z,1868
2017-12-21T13:48:32.501Z,1664
2017-12-21T13:49:35.005Z,1640
2017-12-21T13:50:37.503Z,1676
2017-12-21T13:51:40.286Z,1672
2017-12-21T13:52:42.784Z,1544
2017-12-21T13:53:45.279Z,1720
2017-12-21T13:54:47.779Z,1652
2017-12-21T13:55:50.267Z,1800
2017-12-21T13:56:52.778Z,2048
2017-12-21T13:57:55.564Z,2000
2017-12-21T13:58:58.047Z,1856
2017-12-21T14:00:00.543Z,1864
2017-12-21T14:01:03.337Z,1844
2017-12-21T14:02:05.825Z,1876
2017-12-21T14:03:08.326Z,2044
2017-12-21T14:04:10.813Z,2028
2017-12-21T14:05:13.301Z,1744
2017-12-21T14:06:16.120Z,1540
2017-12-21T14:07:18.602Z,1552
2017-12-21T14:08:21.104Z,1612
2017-12-21T14:09:23.599Z,1508
2017-12-21T14:10:26.094Z,1544
2017-12-21T14:11:28.604Z,1484
2017-12-21T14:12:31.104Z,1240
2017-12-21T14:13:33.583Z,1024
2017-12-21T14:14:36.083Z,880
2017-12-21T14:15:38.579Z,860
2017-12-21T14:16:41.366Z,892
2017-12-21T14:17:43.855Z,972
2017-12-21T14:18:46.340Z,1064
2017-12-21T14:19:49.125Z,1088
2017-12-21T14:20:51.629Z,1108
2017-12-21T14:21:54.121Z,1180
2017-12-21T14:22:56.625Z,1220
2017-12-21T14:23:59.439Z,1176
2017-12-21T14:25:01.915Z,1120
2017-12-21T14:26:04.727Z,1064
2017-12-21T14:27:07.224Z,1024
2017-12-21T14:28:09.719Z,1024
2017-12-21T14:29:12.223Z,988
2017-12-21T14:30:14.996Z,972
2017-12-21T14:31:17.491Z,932
2017-12-21T14:32:20.000Z,884
2017-12-21T14:33:22.488Z,836
2017-12-21T14:34:25.286Z,784
2017-12-21T14:35:27.789Z,748
2017-12-21T14:36:30.283Z,680